createdAt,value
2016-05-23T00:00:28.762Z,0
2016-05-23T00:01:28.468Z,0
2016-05-23T00:02:28.768Z,0
2016-05-23T00:03:28.786Z,0
2016-05-23T00:04:28.648Z,0
2016-05-23T00:05:28.651Z,0
2016-05-23T00:06:28.669Z,0
2016-05-23T00:07:28.500Z,0
2016-05-23T00:08:28.816Z,0
2016-05-23T00:09:28.834Z,0
2016-05-23T00:10:28.680Z,0
2016-05-23T00:11:28.839Z,0
2016-05-23T00:12:28.858Z,0
2016-05-23T00:13:28.844Z,0
2016-05-23T00:14:28.799Z,0
2016-05-23T00:15:28.880Z,0
2016-05-23T00:16:28.869Z,0
2016-05-23T00:17:28.871Z,0
2016-05-23T00:18:28.888Z,0
2016-05-23T00:19:28.736Z,0
2016-05-23T00:20:28.894Z,0
2016-05-23T00:21:28.913Z,0
2016-05-23T00:22:28.759Z,0
2016-05-23T00:23:28.919Z,0
2016-05-23T00:24:28.952Z,0
2016-05-23T00:25:28.954Z,0
2016-05-23T00:26:28.958Z,0
2016-05-23T00:27:28.787Z,0
2016-05-23T00:28:28.963Z,0
2016-05-23T00:29:28.965Z,0
2016-05-23T00:30:28.984Z,0
2016-05-23T00:31:28.971Z,0
2016-05-23T00:32:28.817Z,0
2016-05-23T00:33:28.836Z,0
2016-05-23T00:34:28.995Z,0
2016-05-23T00:35:28.841Z,0
2016-05-23T00:36:29.016Z,0
2016-05-23T00:37:29.003Z,0
2016-05-23T00:38:28.865Z,0
2016-05-23T00:39:29.024Z,0
2016-05-23T00:40:29.027Z,0
2016-05-23T00:41:28.872Z,0
2016-05-23T00:42:29.032Z,0
2016-05-23T00:43:29.081Z,0
2016-05-23T00:44:29.069Z,0
2016-05-23T00:45:29.055Z,0
2016-05-23T00:46:29.074Z,0
2016-05-23T00:47:29.077Z,0
2016-05-23T00:48:28.923Z,0
2016-05-23T00:49:29.082Z,0
2016-05-23T00:50:28.975Z,0
2016-05-23T00:51:29.119Z,0
2016-05-23T00:52:29.121Z,0
2016-05-23T00:53:29.107Z,0
2016-05-23T00:54:28.830Z,0
2016-05-23T00:55:29.129Z,0
2016-05-23T00:56:29.147Z,0
2016-05-23T00:57:29.151Z,0
2016-05-23T00:58:29.137Z,0
2016-05-23T00:59:29.374Z,0
2016-05-23T01:00:29.158Z,0
2016-05-23T01:01:29.177Z,0
2016-05-23T01:02:29.179Z,0
2016-05-23T01:03:29.181Z,0
2016-05-23T01:04:29.201Z,0
2016-05-23T01:05:29.031Z,0
2016-05-23T01:06:29.206Z,0
2016-05-23T01:07:29.052Z,0
2016-05-23T01:08:29.055Z,0
2016-05-23T01:09:29.214Z,0
2016-05-23T01:10:29.075Z,0
2016-05-23T01:11:28.766Z,0
2016-05-23T01:12:29.238Z,0
2016-05-23T01:13:29.241Z,0
2016-05-23T01:14:29.680Z,0
2016-05-23T01:15:29.105Z,0
2016-05-23T01:16:29.264Z,0
2016-05-23T01:17:29.266Z,0
2016-05-23T01:18:29.285Z,0
2016-05-23T01:19:29.288Z,0
2016-05-23T01:20:29.291Z,0
2016-05-23T01:21:29.324Z,0
2016-05-23T01:22:29.311Z,0
2016-05-23T01:23:29.298Z,0
2016-05-23T01:24:29.316Z,0
2016-05-23T01:25:29.335Z,0
2016-05-23T01:26:29.337Z,0
2016-05-23T01:27:29.185Z,0
2016-05-23T01:28:29.343Z,0
2016-05-23T01:29:29.908Z,0
2016-05-23T01:30:29.192Z,0
2016-05-23T01:31:29.210Z,0
2016-05-23T01:32:30.620Z,0
2016-05-23T01:33:29.387Z,0
2016-05-23T01:34:29.218Z,0
2016-05-23T01:35:29.237Z,0
2016-05-23T01:36:29.255Z,0
2016-05-23T01:37:29.242Z,0
2016-05-23T01:38:29.400Z,0
2016-05-23T01:39:29.107Z,0
2016-05-23T01:40:29.422Z,0
2016-05-23T01:41:29.425Z,0
2016-05-23T01:42:29.287Z,0
2016-05-23T01:43:29.446Z,0
2016-05-23T01:44:29.324Z,0
2016-05-23T01:45:29.295Z,0
2016-05-23T01:46:29.313Z,0
2016-05-23T01:47:29.300Z,0
2016-05-23T01:48:29.319Z,0
2016-05-23T01:49:29.477Z,0
2016-05-23T01:50:29.496Z,0
2016-05-23T01:51:29.499Z,0
2016-05-23T01:52:29.345Z,0
2016-05-23T01:53:29.504Z,0
2016-05-23T01:54:29.522Z,0
2016-05-23T01:55:29.510Z,0
2016-05-23T01:56:29.527Z,0
2016-05-23T01:57:29.530Z,0
2016-05-23T01:58:29.612Z,0
2016-05-23T01:59:29.598Z,0
2016-05-23T02:00:29.413Z,0
2016-05-23T02:01:29.400Z,0
2016-05-23T02:02:43.654Z,0
2016-05-23T02:03:29.578Z,0
2016-05-23T02:04:29.423Z,0
2016-05-23T02:05:29.584Z,0
2016-05-23T02:06:29.586Z,0
2016-05-23T02:07:29.447Z,0
2016-05-23T02:08:29.607Z,0
2016-05-23T02:09:29.610Z,0
2016-05-23T02:10:29.612Z,0
2016-05-23T02:11:29.615Z,0
2016-05-23T02:12:29.477Z,0
2016-05-23T02:13:29.635Z,0
2016-05-23T02:14:29.389Z,0
2016-05-23T02:15:29.657Z,0
2016-05-23T02:16:29.675Z,0
2016-05-23T02:17:29.662Z,0
2016-05-23T02:18:29.665Z,0
2016-05-23T02:19:29.683Z,0
2016-05-23T02:20:29.686Z,0
2016-05-23T02:21:29.392Z,0
2016-05-23T02:22:29.691Z,0
2016-05-23T02:23:29.710Z,0
2016-05-23T02:24:29.744Z,0
2016-05-23T02:25:29.715Z,0
2016-05-23T02:26:29.577Z,0
2016-05-23T02:27:29.721Z,0
2016-05-23T02:28:29.426Z,0
2016-05-23T02:29:29.616Z,0
2016-05-23T02:30:29.776Z,0
2016-05-23T02:31:29.746Z,0
2016-05-23T02:32:43.860Z,0
2016-05-23T02:33:29.612Z,0
2016-05-23T02:34:29.771Z,0
2016-05-23T02:35:29.789Z,0
2016-05-23T02:36:29.791Z,0
2016-05-23T02:37:29.795Z,0
2016-05-23T02:38:29.672Z,0
2016-05-23T02:39:29.815Z,0
2016-05-23T02:40:29.802Z,0
2016-05-23T02:41:29.821Z,0
2016-05-23T02:42:29.823Z,0
2016-05-23T02:43:29.842Z,0
2016-05-23T02:44:29.656Z,0
2016-05-23T02:45:29.847Z,0
2016-05-23T02:46:29.850Z,0
2016-05-23T02:47:29.852Z,0
2016-05-23T02:48:29.886Z,0
2016-05-23T02:49:29.889Z,0
2016-05-23T02:50:29.877Z,0
2016-05-23T02:51:29.879Z,0
2016-05-23T02:52:29.897Z,0
2016-05-23T02:53:29.899Z,0
2016-05-23T02:54:29.933Z,0
2016-05-23T02:55:29.905Z,0
2016-05-23T02:56:29.768Z,0
2016-05-23T02:57:29.927Z,0
2016-05-23T02:58:29.913Z,0
2016-05-23T02:59:29.790Z,0
2016-05-23T03:00:29.949Z,0
2016-05-23T03:01:29.796Z,0
2016-05-23T03:02:29.643Z,0
2016-05-23T03:03:29.973Z,0
2016-05-23T03:04:29.976Z,0
2016-05-23T03:05:29.666Z,0
2016-05-23T03:06:29.669Z,0
2016-05-23T03:07:30.000Z,0
2016-05-23T03:08:29.987Z,0
2016-05-23T03:09:29.848Z,0
2016-05-23T03:10:30.008Z,0
2016-05-23T03:11:30.026Z,0
2016-05-23T03:12:30.029Z,0
2016-05-23T03:13:29.875Z,0
2016-05-23T03:14:30.597Z,0
2016-05-23T03:15:30.069Z,0
2016-05-23T03:16:30.056Z,0
2016-05-23T03:17:29.745Z,0
2016-05-23T03:18:30.060Z,0
2016-05-23T03:19:30.080Z,0
2016-05-23T03:20:30.082Z,0
2016-05-23T03:21:30.085Z,0
2016-05-23T03:22:30.088Z,0
2016-05-23T03:23:30.121Z,0
2016-05-23T03:24:30.108Z,0
2016-05-23T03:25:30.111Z,0
2016-05-23T03:26:30.130Z,0
2016-05-23T03:27:30.116Z,0
2016-05-23T03:28:29.962Z,0
2016-05-23T03:29:30.168Z,0
2016-05-23T03:30:29.984Z,0
2016-05-23T03:31:30.158Z,0
2016-05-23T03:32:30.160Z,0
2016-05-23T03:33:30.163Z,0
2016-05-23T03:34:30.009Z,0
2016-05-23T03:35:30.169Z,0
2016-05-23T03:36:30.187Z,0
2016-05-23T03:37:30.034Z,0
2016-05-23T03:38:30.036Z,0
2016-05-23T03:39:30.211Z,0
2016-05-23T03:40:30.198Z,0
2016-05-23T03:41:29.904Z,0
2016-05-23T03:42:30.219Z,0
2016-05-23T03:43:30.081Z,0
2016-05-23T03:44:30.303Z,0
2016-05-23T03:45:30.242Z,0
2016-05-23T03:46:30.089Z,0
2016-05-23T03:47:30.247Z,0
2016-05-23T03:48:30.111Z,0
2016-05-23T03:49:30.285Z,0
2016-05-23T03:50:30.272Z,0
2016-05-23T03:51:30.291Z,0
2016-05-23T03:52:29.964Z,0
2016-05-23T03:53:30.296Z,0
2016-05-23T03:54:30.142Z,0
2016-05-23T03:55:30.317Z,0
2016-05-23T03:56:30.319Z,0
2016-05-23T03:57:30.010Z,0
2016-05-23T03:58:30.309Z,0
2016-05-23T03:59:30.187Z,0
2016-05-23T04:00:30.330Z,0
2016-05-23T04:01:30.332Z,0
2016-05-23T04:02:30.351Z,0
2016-05-23T04:03:30.213Z,0
2016-05-23T04:04:30.372Z,0
2016-05-23T04:05:30.359Z,0
2016-05-23T04:06:30.377Z,0
2016-05-23T04:07:30.224Z,0
2016-05-23T04:08:30.227Z,0
2016-05-23T04:09:30.245Z,0
2016-05-23T04:10:30.420Z,0
2016-05-23T04:11:30.250Z,0
2016-05-23T04:12:30.393Z,0
2016-05-23T04:13:30.412Z,0
2016-05-23T04:14:30.384Z,0
2016-05-23T04:15:30.276Z,0
2016-05-23T04:16:30.436Z,0
2016-05-23T04:17:30.439Z,0
2016-05-23T04:18:30.488Z,0
2016-05-23T04:19:30.303Z,0
2016-05-23T04:20:30.462Z,0
2016-05-23T04:21:30.464Z,0
2016-05-23T04:22:30.483Z,0
2016-05-23T04:23:30.173Z,0
2016-05-23T04:24:30.504Z,0
2016-05-23T04:25:30.335Z,0
2016-05-23T04:26:30.541Z,0
2016-05-23T04:27:30.497Z,0
2016-05-23T04:28:30.515Z,0
2016-05-23T04:29:31.236Z,0
2016-05-23T04:30:30.535Z,0
2016-05-23T04:31:30.538Z,0
2016-05-23T04:32:30.540Z,0
2016-05-23T04:33:30.543Z,0
2016-05-23T04:34:30.406Z,0
2016-05-23T04:35:30.565Z,0
2016-05-23T04:36:30.583Z,0
2016-05-23T04:37:30.570Z,0
2016-05-23T04:38:30.588Z,0
2016-05-23T04:39:30.591Z,0
2016-05-23T04:40:30.593Z,0
2016-05-23T04:41:30.440Z,0
2016-05-23T04:42:30.599Z,5
2016-05-23T04:43:30.618Z,5
2016-05-23T04:44:31.058Z,5
2016-05-23T04:45:30.623Z,5
2016-05-23T04:46:30.470Z,5
2016-05-23T04:47:30.316Z,5
2016-05-23T04:48:30.647Z,0
2016-05-23T04:49:30.650Z,5
2016-05-23T04:50:30.653Z,5
2016-05-23T04:51:30.656Z,5
2016-05-23T04:52:30.657Z,5
2016-05-23T04:53:30.661Z,5
2016-05-23T04:54:30.678Z,5
2016-05-23T04:55:30.697Z,5
2016-05-23T04:56:30.700Z,5
2016-05-23T04:57:30.703Z,5
2016-05-23T04:58:30.549Z,5
2016-05-23T04:59:30.582Z,0
2016-05-23T05:00:30.570Z,5
2016-05-23T05:01:30.713Z,5
2016-05-23T05:02:30.716Z,5
2016-05-23T05:03:30.593Z,5
2016-05-23T05:04:30.768Z,5
2016-05-23T05:05:30.802Z,5
2016-05-23T05:06:30.743Z,5
2016-05-23T05:07:30.760Z,5
2016-05-23T05:08:30.763Z,5
2016-05-23T05:09:30.766Z,5
2016-05-23T05:10:30.643Z,5
2016-05-23T05:11:30.787Z,5
2016-05-23T05:12:30.634Z,10
2016-05-23T05:13:30.792Z,10
2016-05-23T05:14:31.451Z,10
2016-05-23T05:15:30.656Z,10
2016-05-23T05:16:30.816Z,5
2016-05-23T05:17:30.662Z,5
2016-05-23T05:18:30.837Z,5
2016-05-23T05:19:30.683Z,5
2016-05-23T05:20:30.687Z,5
2016-05-23T05:21:30.845Z,5
2016-05-23T05:22:30.863Z,5
2016-05-23T05:23:30.867Z,5
2016-05-23T05:24:30.712Z,5
2016-05-23T05:25:30.886Z,5
2016-05-23T05:26:30.890Z,5
2016-05-23T05:27:30.580Z,5
2016-05-23T05:28:30.739Z,5
2016-05-23T05:29:31.398Z,5
2016-05-23T05:30:30.916Z,5
2016-05-23T05:31:30.763Z,5
2016-05-23T05:32:30.765Z,5
2016-05-23T05:33:30.768Z,5
2016-05-23T05:34:30.630Z,5
2016-05-23T05:35:30.946Z,5
2016-05-23T05:36:30.948Z,10
2016-05-23T05:37:30.810Z,10
2016-05-23T05:38:30.813Z,10
2016-05-23T05:39:30.957Z,10
2016-05-23T05:40:30.990Z,10
2016-05-23T05:41:30.977Z,10
2016-05-23T05:42:30.652Z,10
2016-05-23T05:43:30.842Z,10
2016-05-23T05:44:31.188Z,5
2016-05-23T05:45:30.987Z,5
2016-05-23T05:46:30.850Z,5
2016-05-23T05:47:30.853Z,5
2016-05-23T05:48:31.011Z,5
2016-05-23T05:49:31.045Z,10
2016-05-23T05:50:30.720Z,5
2016-05-23T05:51:31.051Z,5
2016-05-23T05:52:30.897Z,5
2016-05-23T05:53:31.056Z,5
2016-05-23T05:54:31.059Z,5
2016-05-23T05:55:31.061Z,5
2016-05-23T05:56:31.080Z,5
2016-05-23T05:57:31.083Z,5
2016-05-23T05:58:31.086Z,10
2016-05-23T05:59:31.228Z,10
2016-05-23T06:00:30.950Z,10
2016-05-23T06:01:30.984Z,5
2016-05-23T06:02:31.112Z,5
2016-05-23T06:03:31.130Z,5
2016-05-23T06:04:31.117Z,5
2016-05-23T06:05:31.136Z,5
2016-05-23T06:06:30.982Z,5
2016-05-23T06:07:30.999Z,5
2016-05-23T06:08:31.159Z,5
2016-05-23T06:09:31.162Z,5
2016-05-23T06:10:31.165Z,5
2016-05-23T06:11:31.167Z,5
2016-05-23T06:12:31.185Z,5
2016-05-23T06:13:31.218Z,5
2016-05-23T06:14:31.457Z,5
2016-05-23T06:15:31.193Z,5
2016-05-23T06:16:31.212Z,5
2016-05-23T06:17:31.215Z,5
2016-05-23T06:18:31.218Z,5
2016-05-23T06:19:31.220Z,5
2016-05-23T06:20:31.238Z,5
2016-05-23T06:21:31.335Z,5
2016-05-23T06:22:31.087Z,5
2016-05-23T06:23:31.105Z,5
2016-05-23T06:24:31.389Z,5
2016-05-23T06:25:31.267Z,5
2016-05-23T06:26:35.317Z,5
2016-05-23T06:27:31.131Z,5
2016-05-23T06:28:31.291Z,10
2016-05-23T06:29:31.012Z,10
2016-05-23T06:30:31.312Z,10
2016-05-23T06:31:32.689Z,10
2016-05-23T06:32:31.161Z,10
2016-05-23T06:33:31.164Z,10
2016-05-23T06:34:31.008Z,10
2016-05-23T06:35:31.169Z,10
2016-05-23T06:36:31.328Z,10
2016-05-23T06:37:31.188Z,10
2016-05-23T06:38:31.366Z,15
2016-05-23T06:39:31.351Z,15
2016-05-23T06:40:33.261Z,15
2016-05-23T06:41:31.199Z,15
2016-05-23T06:42:31.216Z,15
2016-05-23T06:43:31.219Z,15
2016-05-23T06:44:31.315Z,15
2016-05-23T06:45:33.196Z,15
2016-05-23T06:46:31.430Z,15
2016-05-23T06:47:31.262Z,15
2016-05-23T06:48:31.108Z,15
2016-05-23T06:49:31.433Z,15
2016-05-23T06:50:31.336Z,15
2016-05-23T06:51:33.627Z,15
2016-05-23T06:52:31.392Z,15
2016-05-23T06:53:31.576Z,15
2016-05-23T06:54:31.603Z,15
2016-05-23T06:55:31.287Z,15
2016-05-23T06:56:32.953Z,15
2016-05-23T06:57:31.484Z,15
2016-05-23T06:58:31.651Z,10
2016-05-23T06:59:31.548Z,15
2016-05-23T07:00:32.131Z,15
2016-05-23T07:01:31.528Z,10
2016-05-23T07:02:31.377Z,10
2016-05-23T07:03:31.711Z,10
2016-05-23T07:04:31.700Z,10
2016-05-23T07:05:32.566Z,10
2016-05-23T07:06:31.722Z,15
2016-05-23T07:07:31.742Z,10
2016-05-23T07:08:31.746Z,15
2016-05-23T07:09:31.733Z,15
2016-05-23T07:10:31.752Z,15
2016-05-23T07:11:33.383Z,15
2016-05-23T07:12:31.774Z,15
2016-05-23T07:13:31.808Z,15
2016-05-23T07:14:32.406Z,15
2016-05-23T07:15:31.471Z,15
2016-05-23T07:16:34.883Z,15
2016-05-23T07:17:31.790Z,15
2016-05-23T07:18:31.808Z,20
2016-05-23T07:19:31.826Z,20
2016-05-23T07:20:31.813Z,15
2016-05-23T07:21:33.507Z,20
2016-05-23T07:22:31.835Z,20
2016-05-23T07:23:31.682Z,20
2016-05-23T07:24:31.840Z,20
2016-05-23T07:25:31.702Z,20
2016-05-23T07:26:31.673Z,20
2016-05-23T07:27:31.863Z,20
2016-05-23T07:28:31.881Z,20
2016-05-23T07:29:31.743Z,20
2016-05-23T07:30:31.731Z,15
2016-05-23T07:31:31.734Z,15
2016-05-23T07:32:31.751Z,20
2016-05-23T07:33:31.942Z,20
2016-05-23T07:34:31.928Z,20
2016-05-23T07:35:31.917Z,20
2016-05-23T07:36:31.762Z,20
2016-05-23T07:37:31.937Z,20
2016-05-23T07:38:31.940Z,20
2016-05-23T07:39:31.803Z,20
2016-05-23T07:40:31.789Z,20
2016-05-23T07:41:31.964Z,25
2016-05-23T07:42:31.982Z,20
2016-05-23T07:43:31.985Z,25
2016-05-23T07:44:32.018Z,25
2016-05-23T07:45:31.834Z,25
2016-05-23T07:46:31.993Z,25
2016-05-23T07:47:31.995Z,25
2016-05-23T07:48:32.013Z,25
2016-05-23T07:49:32.016Z,25
2016-05-23T07:50:32.034Z,25
2016-05-23T07:51:33.397Z,25
2016-05-23T07:52:31.884Z,25
2016-05-23T07:53:32.043Z,25
2016-05-23T07:54:31.889Z,30
2016-05-23T07:55:32.048Z,30
2016-05-23T07:56:31.910Z,30
2016-05-23T07:57:31.929Z,30
2016-05-23T07:58:32.071Z,30
2016-05-23T07:59:32.153Z,30
2016-05-23T08:00:32.108Z,30
2016-05-23T08:01:31.799Z,30
2016-05-23T08:02:32.098Z,30
2016-05-23T08:03:32.132Z,30
2016-05-23T08:04:32.072Z,25
2016-05-23T08:05:31.965Z,25
2016-05-23T08:06:32.140Z,30
2016-05-23T08:07:32.159Z,35
2016-05-23T08:08:31.989Z,30
2016-05-23T08:09:32.133Z,30
2016-05-23T08:10:32.058Z,30
2016-05-23T08:11:32.186Z,35
2016-05-23T08:12:32.156Z,30
2016-05-23T08:13:32.019Z,25
2016-05-23T08:14:32.162Z,25
2016-05-23T08:15:32.180Z,25
2016-05-23T08:16:33.869Z,20
2016-05-23T08:17:32.201Z,25
2016-05-23T08:18:32.079Z,20
2016-05-23T08:19:32.066Z,20
2016-05-23T08:20:32.069Z,20
2016-05-23T08:21:32.071Z,20
2016-05-23T08:22:32.230Z,15
2016-05-23T08:23:32.248Z,15
2016-05-23T08:24:31.954Z,20
2016-05-23T08:25:32.268Z,20
2016-05-23T08:26:35.228Z,25
2016-05-23T08:27:32.118Z,30
2016-05-23T08:28:32.277Z,30
2016-05-23T08:29:32.264Z,30
2016-05-23T08:30:32.298Z,30
2016-05-23T08:31:32.145Z,25
2016-05-23T08:32:32.304Z,30
2016-05-23T08:33:32.150Z,30
2016-05-23T08:34:32.325Z,25
2016-05-23T08:35:32.171Z,25
2016-05-23T08:36:34.128Z,30
2016-05-23T08:37:32.176Z,25
2016-05-23T08:38:32.195Z,25
2016-05-23T08:39:32.198Z,25
2016-05-23T08:40:32.356Z,25
2016-05-23T08:41:32.375Z,25
2016-05-23T08:42:32.393Z,25
2016-05-23T08:43:32.380Z,30
2016-05-23T08:44:32.305Z,30
2016-05-23T08:45:32.402Z,35
2016-05-23T08:46:32.233Z,35
2016-05-23T08:47:32.438Z,35
2016-05-23T08:48:32.441Z,35
2016-05-23T08:49:32.428Z,40
2016-05-23T08:50:32.274Z,35
2016-05-23T08:51:32.432Z,35
2016-05-23T08:52:32.466Z,35
2016-05-23T08:53:32.141Z,35
2016-05-23T08:54:32.316Z,35
2016-05-23T08:55:32.460Z,40
2016-05-23T08:56:32.322Z,35
2016-05-23T08:57:32.480Z,35
2016-05-23T08:58:32.483Z,40
2016-05-23T08:59:32.939Z,45
2016-05-23T09:00:32.520Z,45
2016-05-23T09:01:32.210Z,45
2016-05-23T09:02:32.509Z,45
2016-05-23T09:03:32.543Z,50
2016-05-23T09:04:32.562Z,55
2016-05-23T09:05:32.534Z,60
2016-05-23T09:06:32.395Z,60
2016-05-23T09:07:32.570Z,55
2016-05-23T09:08:32.573Z,55
2016-05-23T09:09:32.575Z,55
2016-05-23T09:10:32.578Z,50
2016-05-23T09:11:32.424Z,55
2016-05-23T09:12:32.442Z,55
2016-05-23T09:13:32.445Z,50
2016-05-23T09:14:32.745Z,55
2016-05-23T09:15:32.623Z,55
2016-05-23T09:16:32.610Z,55
2016-05-23T09:17:32.472Z,55
2016-05-23T09:18:32.631Z,55
2016-05-23T09:19:32.650Z,60
2016-05-23T09:20:32.652Z,60
2016-05-23T09:21:32.655Z,60
2016-05-23T09:22:32.547Z,55
2016-05-23T09:23:32.519Z,55
2016-05-23T09:24:32.521Z,50
2016-05-23T09:25:32.712Z,45
2016-05-23T09:26:32.699Z,45
2016-05-23T09:27:33.765Z,45
2016-05-23T09:28:32.735Z,40
2016-05-23T09:29:33.004Z,45
2016-05-23T09:30:32.726Z,45
2016-05-23T09:31:32.556Z,40
2016-05-23T09:32:33.153Z,35
2016-05-23T09:33:32.577Z,35
2016-05-23T09:34:32.611Z,35
2016-05-23T09:35:32.754Z,35
2016-05-23T09:36:32.757Z,40
2016-05-23T09:37:32.759Z,45
2016-05-23T09:38:32.794Z,50
2016-05-23T09:39:32.781Z,50
2016-05-23T09:40:32.799Z,45
2016-05-23T09:41:32.661Z,45
2016-05-23T09:42:33.664Z,35
2016-05-23T09:43:32.511Z,35
2016-05-23T09:44:32.389Z,35
2016-05-23T09:45:32.688Z,35
2016-05-23T09:46:32.691Z,35
2016-05-23T09:47:36.333Z,35
2016-05-23T09:48:32.853Z,35
2016-05-23T09:49:32.855Z,40
2016-05-23T09:50:32.872Z,40
2016-05-23T09:51:32.875Z,40
2016-05-23T09:52:34.269Z,40
2016-05-23T09:53:32.897Z,45
2016-05-23T09:54:32.899Z,45
2016-05-23T09:55:32.902Z,45
2016-05-23T09:56:32.780Z,45
2016-05-23T09:57:33.673Z,45
2016-05-23T09:58:32.769Z,45
2016-05-23T09:59:32.944Z,40
2016-05-23T10:00:32.775Z,40
2016-05-23T10:01:32.793Z,45
2016-05-23T10:02:34.546Z,45
2016-05-23T10:03:32.955Z,45
2016-05-23T10:04:32.974Z,45
2016-05-23T10:05:32.976Z,40
2016-05-23T10:06:32.979Z,40
2016-05-23T10:07:33.106Z,40
2016-05-23T10:08:32.984Z,35
2016-05-23T10:09:33.002Z,35
2016-05-23T10:10:32.848Z,35
2016-05-23T10:11:32.867Z,35
2016-05-23T10:12:32.870Z,35
2016-05-23T10:13:32.716Z,35
2016-05-23T10:14:33.047Z,40
2016-05-23T10:15:33.050Z,45
2016-05-23T10:16:33.053Z,45
2016-05-23T10:17:32.914Z,40
2016-05-23T10:18:32.760Z,40
2016-05-23T10:19:33.061Z,40
2016-05-23T10:20:32.625Z,40
2016-05-23T10:21:33.113Z,40
2016-05-23T10:22:33.115Z,40
2016-05-23T10:23:33.118Z,45
2016-05-23T10:24:34.449Z,45
2016-05-23T10:25:33.124Z,45
2016-05-23T10:26:33.141Z,40
2016-05-23T10:27:32.832Z,35
2016-05-23T10:28:33.007Z,35
2016-05-23T10:29:34.010Z,35
2016-05-23T10:30:33.277Z,35
2016-05-23T10:31:33.155Z,40
2016-05-23T10:32:33.018Z,45
2016-05-23T10:33:33.177Z,45
2016-05-23T10:34:33.178Z,40
2016-05-23T10:35:33.040Z,35
2016-05-23T10:36:33.200Z,35
2016-05-23T10:37:33.062Z,35
2016-05-23T10:38:33.048Z,35
2016-05-23T10:39:33.239Z,35
2016-05-23T10:40:33.257Z,35
2016-05-23T10:41:33.245Z,35
2016-05-23T10:42:33.262Z,40
2016-05-23T10:43:33.265Z,40
2016-05-23T10:44:34.830Z,40
2016-05-23T10:45:33.317Z,45
2016-05-23T10:46:33.258Z,45
2016-05-23T10:47:32.964Z,40
2016-05-23T10:48:32.982Z,35
2016-05-23T10:49:34.485Z,35
2016-05-23T10:50:33.159Z,35
2016-05-23T10:51:33.303Z,40
2016-05-23T10:52:33.336Z,40
2016-05-23T10:53:33.167Z,35
2016-05-23T10:54:35.061Z,35
2016-05-23T10:55:33.205Z,40
2016-05-23T10:56:33.347Z,40
2016-05-23T10:57:33.193Z,40
2016-05-23T10:58:33.352Z,40
2016-05-23T10:59:33.215Z,45
2016-05-23T11:00:33.390Z,50
2016-05-23T11:01:33.392Z,55
2016-05-23T11:02:47.476Z,50
2016-05-23T11:03:33.241Z,50
2016-05-23T11:04:33.244Z,50
2016-05-23T11:05:33.403Z,50
2016-05-23T11:06:33.421Z,50
2016-05-23T11:07:33.424Z,50
2016-05-23T11:08:33.427Z,45
2016-05-23T11:09:33.445Z,50
2016-05-23T11:10:33.448Z,50
2016-05-23T11:11:33.465Z,45
2016-05-23T11:12:33.453Z,45
2016-05-23T11:13:33.159Z,45
2016-05-23T11:14:33.786Z,45
2016-05-23T11:15:33.336Z,40
2016-05-23T11:16:33.479Z,35
2016-05-23T11:17:33.342Z,35
2016-05-23T11:18:33.517Z,30
2016-05-23T11:19:33.534Z,35
2016-05-23T11:20:33.522Z,35
2016-05-23T11:21:33.367Z,35
2016-05-23T11:22:33.386Z,30
2016-05-23T11:23:33.389Z,30
2016-05-23T11:24:33.391Z,30
2016-05-23T11:25:33.550Z,30
2016-05-23T11:26:33.413Z,30
2016-05-23T11:27:33.572Z,35
2016-05-23T11:28:33.433Z,40
2016-05-23T11:29:34.358Z,40
2016-05-23T11:30:33.596Z,35
2016-05-23T11:31:33.441Z,35
2016-05-23T11:33:01.791Z,40
2016-05-23T11:33:33.463Z,40
2016-05-23T11:34:33.622Z,40
2016-05-23T11:35:33.640Z,35
2016-05-23T11:36:33.627Z,35
2016-05-23T11:37:33.661Z,35
2016-05-23T11:38:33.335Z,35
2016-05-23T11:39:33.651Z,35
2016-05-23T11:40:33.668Z,40
2016-05-23T11:41:33.671Z,45
2016-05-23T11:42:33.690Z,45
2016-05-23T11:43:33.520Z,45
2016-05-23T11:44:33.883Z,45
2016-05-23T11:45:33.542Z,50
2016-05-23T11:46:33.700Z,45
2016-05-23T11:47:33.734Z,45
2016-05-23T11:48:33.737Z,40
2016-05-23T11:49:33.583Z,40
2016-05-23T11:50:33.742Z,40
2016-05-23T11:51:33.589Z,40
2016-05-23T11:52:33.451Z,40
2016-05-23T11:53:33.783Z,40
2016-05-23T11:54:33.769Z,40
2016-05-23T11:55:33.772Z,35
2016-05-23T11:56:33.618Z,40
2016-05-23T11:57:33.793Z,40
2016-05-23T11:58:33.499Z,40
2016-05-23T11:59:33.861Z,45
2016-05-23T12:00:33.645Z,45
2016-05-23T12:01:33.662Z,40
2016-05-23T12:02:33.665Z,40
2016-05-23T12:03:33.668Z,45
2016-05-23T12:04:33.843Z,50
2016-05-23T12:05:33.877Z,45
2016-05-23T12:06:33.864Z,40
2016-05-23T12:07:33.554Z,40
2016-05-23T12:08:33.869Z,45
2016-05-23T12:09:33.716Z,50
2016-05-23T12:10:33.766Z,45
2016-05-23T12:11:33.737Z,40
2016-05-23T12:12:33.895Z,30
2016-05-23T12:13:33.914Z,30
2016-05-23T12:14:33.776Z,25
2016-05-23T12:15:33.920Z,25
2016-05-23T12:16:33.609Z,25
2016-05-23T12:17:33.784Z,25
2016-05-23T12:18:33.958Z,20
2016-05-23T12:19:33.977Z,25
2016-05-23T12:20:33.964Z,20
2016-05-23T12:21:33.983Z,20
2016-05-23T12:22:33.814Z,20
2016-05-23T12:23:33.816Z,20
2016-05-23T12:24:33.678Z,15
2016-05-23T12:25:34.024Z,15
2016-05-23T12:26:33.996Z,15
2016-05-23T12:27:33.858Z,15
2016-05-23T12:28:33.705Z,20
2016-05-23T12:29:33.722Z,25
2016-05-23T12:30:34.022Z,25
2016-05-23T12:31:34.025Z,25
2016-05-23T12:33:02.249Z,20
2016-05-23T12:33:33.890Z,25
2016-05-23T12:34:33.751Z,25
2016-05-23T12:35:34.176Z,30
2016-05-23T12:36:33.929Z,30
2016-05-23T12:37:34.182Z,30
2016-05-23T12:38:34.107Z,30
2016-05-23T12:39:33.937Z,30
2016-05-23T12:40:33.954Z,35
2016-05-23T12:41:34.114Z,35
2016-05-23T12:42:33.804Z,40
2016-05-23T12:43:33.963Z,40
2016-05-23T12:44:35.279Z,35
2016-05-23T12:45:33.984Z,30
2016-05-23T12:46:34.003Z,30
2016-05-23T12:47:33.990Z,25
2016-05-23T12:48:34.040Z,20
2016-05-23T12:49:34.589Z,20
2016-05-23T12:50:34.169Z,20
2016-05-23T12:51:34.189Z,15
2016-05-23T12:52:34.066Z,15
2016-05-23T12:53:36.865Z,15
2016-05-23T12:54:34.212Z,20
2016-05-23T12:55:34.089Z,20
2016-05-23T12:56:34.060Z,20
2016-05-23T12:57:34.219Z,20
2016-05-23T12:58:34.238Z,20
2016-05-23T12:59:34.475Z,25
2016-05-23T13:00:33.946Z,30
2016-05-23T13:01:34.090Z,35
2016-05-23T13:02:34.108Z,35
2016-05-23T13:03:34.267Z,30
2016-05-23T13:04:34.269Z,30
2016-05-23T13:05:34.288Z,35
2016-05-23T13:06:33.963Z,35
2016-05-23T13:07:34.137Z,35
2016-05-23T13:08:34.312Z,30
2016-05-23T13:09:34.158Z,30
2016-05-23T13:10:34.161Z,30
2016-05-23T13:11:34.179Z,35
2016-05-23T13:12:34.323Z,40
2016-05-23T13:13:34.340Z,35
2016-05-23T13:14:34.296Z,35
2016-05-23T13:15:34.361Z,35
2016-05-23T13:16:34.365Z,35
2016-05-23T13:17:34.367Z,35
2016-05-23T13:18:34.370Z,35
2016-05-23T13:19:34.389Z,35
2016-05-23T13:20:34.375Z,35
2016-05-23T13:21:34.394Z,40
2016-05-23T13:22:34.412Z,35
2016-05-23T13:23:34.399Z,30
2016-05-23T13:24:34.402Z,30
2016-05-23T13:25:34.420Z,30
2016-05-23T13:26:34.283Z,25
2016-05-23T13:27:34.441Z,30
2016-05-23T13:28:34.288Z,30
2016-05-23T13:29:34.728Z,30
2016-05-23T13:30:34.449Z,30
2016-05-23T13:31:34.467Z,30
2016-05-23T13:32:34.313Z,30
2016-05-23T13:33:34.161Z,25
2016-05-23T13:34:34.491Z,30
2016-05-23T13:35:34.493Z,25
2016-05-23T13:36:34.497Z,30
2016-05-23T13:37:34.343Z,25
2016-05-23T13:38:34.517Z,25
2016-05-23T13:39:34.521Z,25
2016-05-23T13:40:34.382Z,25
2016-05-23T13:41:34.401Z,25
2016-05-23T13:42:34.544Z,25
2016-05-23T13:43:34.563Z,25
2016-05-23T13:44:34.580Z,25
2016-05-23T13:45:34.568Z,30
2016-05-23T13:46:34.570Z,30
2016-05-23T13:47:34.432Z,35
2016-05-23T13:48:34.591Z,35
2016-05-23T13:49:34.594Z,35
2016-05-23T13:50:34.440Z,40
2016-05-23T13:51:34.443Z,45
2016-05-23T13:52:34.446Z,50
2016-05-23T13:53:34.621Z,50
2016-05-23T13:54:34.622Z,50
2016-05-23T13:55:34.625Z,40
2016-05-23T13:56:34.691Z,40
2016-05-23T13:57:34.647Z,40
2016-05-23T13:58:34.649Z,45
2016-05-23T13:59:35.011Z,50
2016-05-23T14:00:34.670Z,50
2016-05-23T14:01:34.672Z,45
2016-05-23T14:02:48.460Z,40
2016-05-23T14:03:34.710Z,35
2016-05-23T14:04:34.697Z,40
2016-05-23T14:05:34.699Z,45
2016-05-23T14:06:34.702Z,50
2016-05-23T14:07:34.705Z,50
2016-05-23T14:08:35.629Z,50
2016-05-23T14:09:34.585Z,45
2016-05-23T14:10:34.744Z,40
2016-05-23T14:11:34.746Z,40
2016-05-23T14:12:34.610Z,30
2016-05-23T14:13:34.768Z,25
2016-05-23T14:14:35.223Z,35
2016-05-23T14:15:34.898Z,40
2016-05-23T14:16:34.776Z,45
2016-05-23T14:17:34.795Z,45
2016-05-23T14:18:36.500Z,45
2016-05-23T14:19:34.800Z,40
2016-05-23T14:20:34.662Z,40
2016-05-23T14:21:34.836Z,45
2016-05-23T14:22:34.823Z,50
2016-05-23T14:23:34.826Z,40
2016-05-23T14:24:34.859Z,30
2016-05-23T14:25:34.800Z,30
2016-05-23T14:26:34.865Z,35
2016-05-23T14:27:34.867Z,35
2016-05-23T14:28:37.933Z,35